createdAt,value
2022-09-02T00:02:25.305Z,21.54
2022-09-02T00:04:53.199Z,21.49
2022-09-02T00:07:20.990Z,21.46
2022-09-02T00:09:48.750Z,21.47
2022-09-02T00:12:16.824Z,21.43
2022-09-02T00:14:45.952Z,21.45
2022-09-02T00:17:13.868Z,21.44
2022-09-02T00:19:41.567Z,21.45
2022-09-02T00:22:09.418Z,21.39
2022-09-02T00:24:37.340Z,21.31
2022-09-02T00:27:05.422Z,21.22
2022-09-02T00:29:33.443Z,21.20
2022-09-02T00:32:02.615Z,21.16
2022-09-02T00:34:30.328Z,21.17
2022-09-02T00:36:58.053Z,21.17
2022-09-02T00:39:26.222Z,21.15
2022-09-02T00:41:54.114Z,21.09
2022-09-02T00:44:22.681Z,21.10
2022-09-02T00:46:50.577Z,21.09
2022-09-02T00:49:25.121Z,21.05
2022-09-02T00:51:56.428Z,21.01
2022-09-02T00:54:26.802Z,21.00
2022-09-02T00:56:56.255Z,20.99
2022-09-02T00:59:30.109Z,20.94
2022-09-02T01:01:58.356Z,20.90
2022-09-02T01:04:27.570Z,20.88
2022-09-02T01:06:55.261Z,20.79
2022-09-02T01:09:23.295Z,20.73
2022-09-02T01:11:55.450Z,20.72
2022-09-02T01:14:24.084Z,20.71
2022-09-02T01:16:59.905Z,20.71
2022-09-02T01:19:33.994Z,20.70
2022-09-02T01:22:07.055Z,20.65
2022-09-02T01:24:35.730Z,20.65
2022-09-02T01:27:03.781Z,20.55
2022-09-02T01:29:31.517Z,20.59
2022-09-02T01:32:00.435Z,20.50
2022-09-02T01:34:29.146Z,20.49
2022-09-02T01:36:56.957Z,20.45
2022-09-02T01:39:26.070Z,20.46
2022-09-02T01:41:53.918Z,20.45
2022-09-02T01:44:21.750Z,20.43
2022-09-02T01:46:49.496Z,20.47
2022-09-02T01:49:17.327Z,20.43
2022-09-02T01:51:45.070Z,20.35
2022-09-02T01:54:14.067Z,20.28
2022-09-02T01:56:45.305Z,20.29
2022-09-02T01:59:17.935Z,20.26
2022-09-02T02:01:46.220Z,20.27
2022-09-02T02:04:14.444Z,20.27
2022-09-02T02:06:43.615Z,20.29
2022-09-02T02:09:13.454Z,20.20
2022-09-02T02:11:41.658Z,20.12
2022-09-02T02:14:11.135Z,20.15
2022-09-02T02:16:39.192Z,20.15
2022-09-02T02:19:07.258Z,20.14
2022-09-02T02:21:35.190Z,20.14
2022-09-02T02:24:03.325Z,20.11
2022-09-02T02:26:31.188Z,20.11
2022-09-02T02:28:59.188Z,20.03
2022-09-02T02:31:28.286Z,20.02
2022-09-02T02:33:56.141Z,19.96
2022-09-02T02:36:24.017Z,19.99
2022-09-02T02:38:51.747Z,20.04
2022-09-02T02:41:19.428Z,19.97
2022-09-02T02:43:47.809Z,19.91
2022-09-02T02:46:16.466Z,19.84
2022-09-02T02:48:45.826Z,19.81
2022-09-02T02:51:13.578Z,19.74
2022-09-02T02:53:41.722Z,19.76
2022-09-02T02:56:09.871Z,19.72
2022-09-02T02:58:37.802Z,19.65
2022-09-02T03:01:05.708Z,19.69
2022-09-02T03:03:33.363Z,19.74
2022-09-02T03:06:02.959Z,19.69
2022-09-02T03:08:30.793Z,19.65
2022-09-02T03:10:59.108Z,19.62
2022-09-02T03:13:29.528Z,19.67
2022-09-02T03:15:59.804Z,19.66
2022-09-02T03:18:27.649Z,19.57
2022-09-02T03:20:55.563Z,19.53
2022-09-02T03:23:24.729Z,19.48
2022-09-02T03:25:52.623Z,19.47
2022-09-02T03:28:20.377Z,19.43
2022-09-02T03:30:48.738Z,19.44
2022-09-02T03:33:16.716Z,19.50
2022-09-02T03:35:46.354Z,19.36
2022-09-02T03:38:14.897Z,19.36
2022-09-02T03:40:44.504Z,19.36
2022-09-02T03:43:12.335Z,19.37
2022-09-02T03:45:41.965Z,19.41
2022-09-02T03:48:14.325Z,19.38
2022-09-02T03:50:47.247Z,19.34
2022-09-02T03:53:19.364Z,19.28
2022-09-02T03:55:50.641Z,19.31
2022-09-02T03:58:18.891Z,19.28
2022-09-02T04:00:51.682Z,19.28
2022-09-02T04:03:20.197Z,19.23
2022-09-02T04:05:48.389Z,19.24
2022-09-02T04:08:16.157Z,19.16
2022-09-02T04:10:44.442Z,19.24
2022-09-02T04:13:13.549Z,19.27
2022-09-02T04:15:43.017Z,19.25
2022-09-02T04:19:06.182Z,19.25
2022-09-02T04:21:35.881Z,19.25
2022-09-02T04:24:04.024Z,19.19
2022-09-02T04:26:31.846Z,19.24
2022-09-02T04:29:00.880Z,19.27
2022-09-02T04:31:31.968Z,19.26
2022-09-02T04:34:00.188Z,19.15
2022-09-02T04:36:30.870Z,19.06
2022-09-02T04:38:59.177Z,19.11
2022-09-02T04:41:30.613Z,19.11
2022-09-02T04:44:00.883Z,19.06
2022-09-02T04:46:34.594Z,19.13
2022-09-02T04:49:03.004Z,19.13
2022-09-02T04:51:31.659Z,19.05
2022-09-02T04:53:59.632Z,19.03
2022-09-02T04:56:29.179Z,18.99
2022-09-02T04:58:57.054Z,18.96
2022-09-02T05:01:28.866Z,19.01
2022-09-02T05:03:57.274Z,18.97
2022-09-02T05:06:27.419Z,18.88
2022-09-02T05:08:56.303Z,18.92
2022-09-02T05:11:28.577Z,19.01
2022-09-02T05:13:58.801Z,19.03
2022-09-02T05:16:30.004Z,19.10
2022-09-02T05:18:58.410Z,19.04
2022-09-02T05:21:26.385Z,19.04
2022-09-02T05:23:54.541Z,19.06
2022-09-02T05:26:23.108Z,18.97
2022-09-02T05:28:51.031Z,18.92
2022-09-02T05:31:21.354Z,18.93
2022-09-02T05:33:50.778Z,18.92
2022-09-02T05:36:21.153Z,18.97
2022-09-02T05:38:49.963Z,18.99
2022-09-02T05:41:23.355Z,19.00
2022-09-02T05:43:52.455Z,18.97
2022-09-02T05:46:23.333Z,18.98
2022-09-02T05:49:09.313Z,19.00
2022-09-02T05:51:42.687Z,19.05
2022-09-02T05:54:12.474Z,19.09
2022-09-02T05:56:45.204Z,19.07
2022-09-02T05:59:13.763Z,19.09
2022-09-02T06:01:42.052Z,19.08
2022-09-02T06:04:11.107Z,19.05
2022-09-02T06:06:38.835Z,19.04
2022-09-02T06:09:08.416Z,19.11
2022-09-02T06:11:40.185Z,19.16
2022-09-02T06:14:08.524Z,19.25
2022-09-02T06:16:37.215Z,19.27
2022-09-02T06:19:05.649Z,19.35
2022-09-02T06:21:37.144Z,19.40
2022-09-02T06:24:06.134Z,19.42
2022-09-02T06:26:34.094Z,19.45
2022-09-02T06:29:01.842Z,19.42
2022-09-02T06:31:34.507Z,19.43
2022-09-02T06:34:03.604Z,19.53
2022-09-02T06:36:32.677Z,19.55
2022-09-02T06:39:02.273Z,19.62
2022-09-02T06:41:33.458Z,19.66
2022-09-02T06:44:03.238Z,19.70
2022-09-02T06:46:33.595Z,19.75
2022-09-02T06:49:01.944Z,19.83
2022-09-02T06:51:31.756Z,19.95
2022-09-02T06:54:01.671Z,20.01
2022-09-02T06:56:29.881Z,20.03
2022-09-02T06:58:58.457Z,20.09
2022-09-02T07:01:28.414Z,20.10
2022-09-02T07:04:13.962Z,20.13
2022-09-02T07:06:44.287Z,20.16
2022-09-02T07:09:15.711Z,20.22
2022-09-02T07:11:47.946Z,20.27
2022-09-02T07:14:16.124Z,20.33
2022-09-02T07:16:46.529Z,20.37
2022-09-02T07:19:19.898Z,20.41
2022-09-02T07:21:49.009Z,20.44
2022-09-02T07:24:19.205Z,20.48
2022-09-02T07:26:47.024Z,20.53
2022-09-02T07:29:15.047Z,20.57
2022-09-02T07:31:45.377Z,20.62
2022-09-02T07:34:14.453Z,20.63
2022-09-02T07:36:42.620Z,20.76
2022-09-02T07:39:11.965Z,20.88
2022-09-02T07:41:46.793Z,21.00
2022-09-02T07:44:14.667Z,21.10
2022-09-02T07:46:42.459Z,21.17
2022-09-02T07:49:15.573Z,21.26
2022-09-02T07:51:49.198Z,21.30
2022-09-02T07:54:19.012Z,21.38
2022-09-02T07:56:49.733Z,21.47
2022-09-02T07:59:18.314Z,21.54
2022-09-02T08:01:48.253Z,21.64
2022-09-02T08:04:18.680Z,21.72
2022-09-02T08:06:47.046Z,21.82
2022-09-02T08:09:14.973Z,21.93
2022-09-02T08:11:46.496Z,22.02
2022-09-02T08:14:18.868Z,22.10
2022-09-02T08:16:48.021Z,22.17
2022-09-02T08:19:16.148Z,22.26
2022-09-02T08:21:44.153Z,22.35
2022-09-02T08:24:11.931Z,22.47
2022-09-02T08:26:39.652Z,22.56
2022-09-02T08:29:09.617Z,22.71
2022-09-02T08:31:39.588Z,22.88
2022-09-02T08:34:07.404Z,23.00
2022-09-02T08:36:35.046Z,23.08
2022-09-02T08:39:03.556Z,23.24
2022-09-02T08:41:36.007Z,23.37
2022-09-02T08:44:06.123Z,23.48
2022-09-02T08:46:35.980Z,23.76
2022-09-02T08:49:08.178Z,23.90
2022-09-02T08:51:39.150Z,24.08
2022-09-02T08:54:11.646Z,24.21
2022-09-02T08:56:39.975Z,24.38
2022-09-02T08:59:09.477Z,24.58
2022-09-02T09:01:46.759Z,24.77
2022-09-02T09:04:32.537Z,24.92
2022-09-02T09:07:14.286Z,24.90
2022-09-02T09:09:56.463Z,25.08
2022-09-02T09:12:38.672Z,25.28
2022-09-02T09:15:12.870Z,25.46
2022-09-02T09:17:45.415Z,25.63
2022-09-02T09:20:20.453Z,25.83
2022-09-02T09:22:50.868Z,26.12
2022-09-02T09:25:19.645Z,26.41
2022-09-02T09:27:47.329Z,26.45
2022-09-02T09:30:15.936Z,26.39
2022-09-02T09:32:47.437Z,26.38
2022-09-02T09:35:17.884Z,26.44
2022-09-02T09:37:47.940Z,26.37
2022-09-02T09:40:30.438Z,26.49
2022-09-02T09:45:34.964Z,26.51
2022-09-02T09:48:18.991Z,26.30
2022-09-02T09:50:50.093Z,26.18
2022-09-02T09:53:22.110Z,26.09
2022-09-02T09:55:55.422Z,26.21
2022-09-02T09:58:25.964Z,26.21
2022-09-02T10:00:56.376Z,26.12
2022-09-02T10:03:27.125Z,26.15
2022-09-02T10:06:19.922Z,26.09
2022-09-02T10:08:53.499Z,26.44
2022-09-02T10:11:25.078Z,26.89
2022-09-02T10:14:01.372Z,27.13
2022-09-02T10:16:53.140Z,27.29
2022-09-02T10:19:27.929Z,27.04
2022-09-02T10:22:23.300Z,26.73
2022-09-02T10:25:20.438Z,26.80
2022-09-02T10:28:00.983Z,26.91
2022-09-02T10:30:34.431Z,26.81
2022-09-02T10:33:16.614Z,26.44
2022-09-02T10:35:46.595Z,26.06
2022-09-02T10:38:34.224Z,25.82
2022-09-02T10:41:14.853Z,25.69
2022-09-02T10:44:13.690Z,25.59
2022-09-02T10:46:48.958Z,25.45
2022-09-02T10:49:31.472Z,25.32
2022-09-02T10:52:13.077Z,25.43
2022-09-02T10:54:53.366Z,25.48
2022-09-02T10:57:26.646Z,25.39
2022-09-02T11:00:01.816Z,25.41
2022-09-02T11:02:33.084Z,25.33
2022-09-02T11:05:04.085Z,25.30
2022-09-02T11:07:37.207Z,25.30
2022-09-02T11:10:12.478Z,25.28
2022-09-02T11:12:42.962Z,25.17
2022-09-02T11:15:17.358Z,25.18
2022-09-02T11:17:52.744Z,25.35
2022-09-02T11:20:30.806Z,25.28
2022-09-02T11:23:06.908Z,25.30
2022-09-02T11:25:43.028Z,26.03
2022-09-02T11:28:31.851Z,30.05
2022-09-02T11:31:07.665Z,32.59
2022-09-02T11:33:52.128Z,32.82
2022-09-02T11:36:20.930Z,32.04
2022-09-02T11:38:54.000Z,31.50
2022-09-02T11:41:36.848Z,31.20
2022-09-02T11:44:21.869Z,30.52
2022-09-02T11:47:09.981Z,29.92
2022-09-02T11:50:09.589Z,29.32
2022-09-02T11:52:58.028Z,28.55
2022-09-02T11:55:32.547Z,28.17
2022-09-02T11:58:02.755Z,27.94
2022-09-02T12:00:33.173Z,28.06
2022-09-02T12:03:38.869Z,28.60
2022-09-02T12:06:13.628Z,29.03
2022-09-02T12:09:04.004Z,28.50
2022-09-02T12:11:39.840Z,28.29
2022-09-02T12:14:11.871Z,28.10
2022-09-02T12:16:44.740Z,27.81
2022-09-02T12:19:28.097Z,27.39
2022-09-02T12:22:28.738Z,27.17
2022-09-02T12:24:57.368Z,27.11
2022-09-02T12:27:30.310Z,27.04
2022-09-02T12:30:01.472Z,26.98
2022-09-02T12:33:14.378Z,26.94
2022-09-02T12:35:57.611Z,26.73
2022-09-02T12:38:36.654Z,26.66
2022-09-02T12:41:20.360Z,27.02
2022-09-02T12:44:09.823Z,27.00
2022-09-02T12:46:56.834Z,27.02
2022-09-02T12:49:44.507Z,27.04
2022-09-02T12:52:14.223Z,26.93
2022-09-02T12:54:47.810Z,26.86
2022-09-02T12:57:17.316Z,26.70
2022-09-02T12:59:46.922Z,26.49
2022-09-02T13:02:29.730Z,26.39
2022-09-02T13:05:10.589Z,26.33
2022-09-02T13:08:08.047Z,26.19
2022-09-02T13:10:57.541Z,26.26
2022-09-02T13:14:03.993Z,26.17
2022-09-02T13:16:40.690Z,26.17
2022-09-02T13:19:43.458Z,26.08
2022-09-02T13:22:44.784Z,26.05
2022-09-02T13:25:48.234Z,26.01
2022-09-02T13:29:00.218Z,26.08
2022-09-02T13:31:29.329Z,26.00
2022-09-02T13:34:01.470Z,26.02
2022-09-02T13:36:36.457Z,26.11
2022-09-02T13:39:17.925Z,26.02
2022-09-02T13:41:46.127Z,26.02
2022-09-02T13:44:21.100Z,25.94
2022-09-02T13:46:51.049Z,26.01
2022-09-02T13:49:24.825Z,25.88
2022-09-02T13:51:56.649Z,25.98
2022-09-02T13:54:32.963Z,25.88
2022-09-02T13:57:04.816Z,25.92
2022-09-02T13:59:34.375Z,25.91
2022-09-02T14:02:17.777Z,25.91
2022-09-02T14:04:45.978Z,25.81
2022-09-02T14:07:16.827Z,25.84
2022-09-02T14:09:45.928Z,25.93
2022-09-02T14:12:13.938Z,25.97
2022-09-02T14:14:42.611Z,26.05
2022-09-02T14:17:22.215Z,26.01
2022-09-02T14:19:50.528Z,26.08
2022-09-02T14:22:25.743Z,26.09
2022-09-02T14:24:53.943Z,26.06
2022-09-02T14:27:23.954Z,26.02
2022-09-02T14:29:57.592Z,26.07
2022-09-02T14:32:27.047Z,26.08
2022-09-02T14:35:19.890Z,26.02
2022-09-02T14:37:55.755Z,25.92
2022-09-02T14:40:35.371Z,25.88
2022-09-02T14:43:03.606Z,25.91
2022-09-02T14:45:34.103Z,25.92
2022-09-02T14:48:11.356Z,25.89
2022-09-02T14:50:41.426Z,25.88
2022-09-02T14:53:11.726Z,26.00
2022-09-02T14:55:57.739Z,26.05
2022-09-02T14:58:27.339Z,26.12
2022-09-02T15:00:56.969Z,26.15
2022-09-02T15:03:25.381Z,26.07
2022-09-02T15:05:53.861Z,26.03
2022-09-02T15:08:23.485Z,26.01
2022-09-02T15:10:51.288Z,25.97
2022-09-02T15:13:27.123Z,25.94
2022-09-02T15:15:56.007Z,25.88
2022-09-02T15:18:24.051Z,25.88
2022-09-02T15:20:52.280Z,25.89
2022-09-02T15:23:20.173Z,25.83
2022-09-02T15:25:49.472Z,25.84
2022-09-02T15:28:17.186Z,25.84
2022-09-02T15:30:44.963Z,25.93
2022-09-02T15:33:19.793Z,25.92
2022-09-02T15:35:47.902Z,25.92
2022-09-02T15:38:15.843Z,25.88
2022-09-02T15:40:44.164Z,25.85
2022-09-02T15:43:13.963Z,25.79
2022-09-02T15:45:46.602Z,25.71
2022-09-02T15:48:14.448Z,25.69
2022-09-02T15:50:42.905Z,25.64
2022-09-02T15:53:16.122Z,25.67
2022-09-02T15:55:44.116Z,25.63
2022-09-02T15:58:13.147Z,25.65
2022-09-02T16:00:41.330Z,25.67
2022-09-02T16:03:11.671Z,25.62
2022-09-02T16:05:39.407Z,25.63
2022-09-02T16:08:07.142Z,25.58
2022-09-02T16:10:37.499Z,25.54
2022-09-02T16:13:05.632Z,25.49
2022-09-02T16:15:34.807Z,25.50
2022-09-02T16:18:02.544Z,25.49
2022-09-02T16:20:30.240Z,25.53
2022-09-02T16:22:57.998Z,25.54
2022-09-02T16:25:26.240Z,25.45
2022-09-02T16:27:54.939Z,25.43
2022-09-02T16:30:22.918Z,25.46
2022-09-02T16:32:52.822Z,25.41
2022-09-02T16:35:20.513Z,25.39
2022-09-02T16:37:48.610Z,25.41
2022-09-02T16:40:21.434Z,25.42
2022-09-02T16:42:49.398Z,25.39
2022-09-02T16:45:17.366Z,25.44
2022-09-02T16:47:45.103Z,25.38
2022-09-02T16:50:14.234Z,25.34
2022-09-02T16:52:42.064Z,25.35
2022-09-02T16:55:10.591Z,25.32
2022-09-02T16:57:38.274Z,25.32
2022-09-02T17:00:07.407Z,25.24
2022-09-02T17:02:35.574Z,25.21
2022-09-02T17:05:03.379Z,25.20
2022-09-02T17:07:32.377Z,25.18
2022-09-02T17:10:00.149Z,25.18
2022-09-02T17:12:27.918Z,25.21
2022-09-02T17:14:55.656Z,25.22
2022-09-02T17:17:23.345Z,25.22
2022-09-02T17:19:51.234Z,25.20
2022-09-02T17:22:18.974Z,25.18
2022-09-02T17:24:51.796Z,25.16
2022-09-02T17:27:21.507Z,25.13
2022-09-02T17:29:50.004Z,25.04
2022-09-02T17:32:18.605Z,24.99
2022-09-02T17:34:46.383Z,25.01
2022-09-02T17:37:14.058Z,24.97
2022-09-02T17:39:41.792Z,24.97
2022-09-02T17:42:10.248Z,24.92
2022-09-02T17:44:39.717Z,24.88
2022-09-02T17:47:09.600Z,24.83
2022-09-02T17:49:39.110Z,24.88
2022-09-02T17:52:08.427Z,24.82
2022-09-02T17:54:37.629Z,24.75
2022-09-02T17:57:21.179Z,24.94
2022-09-02T18:00:01.964Z,24.76
2022-09-02T18:02:42.201Z,24.63
2022-09-02T18:05:17.363Z,24.58
2022-09-02T18:07:53.706Z,24.57
2022-09-02T18:10:22.488Z,24.51
2022-09-02T18:12:51.540Z,24.49
2022-09-02T18:15:19.634Z,24.47
2022-09-02T18:17:49.058Z,24.41
2022-09-02T18:20:24.835Z,24.36
2022-09-02T18:23:17.383Z,24.30
2022-09-02T18:25:52.973Z,24.25
2022-09-02T18:28:34.880Z,24.22
2022-09-02T18:31:12.139Z,24.21
2022-09-02T18:33:59.605Z,24.21
2022-09-02T18:36:39.096Z,24.19
2022-09-02T18:39:22.033Z,24.13
2022-09-02T18:42:03.266Z,24.08
2022-09-02T18:44:50.568Z,24.06
2022-09-02T18:47:22.187Z,24.01
2022-09-02T18:49:52.562Z,23.98
2022-09-02T18:52:24.925Z,23.97
2022-09-02T18:55:02.280Z,23.96
2022-09-02T18:57:36.531Z,23.93
2022-09-02T19:00:08.886Z,23.88
2022-09-02T19:02:43.836Z,23.87
2022-09-02T19:05:13.475Z,23.84
2022-09-02T19:08:02.244Z,23.83
2022-09-02T19:10:30.052Z,23.79
2022-09-02T19:13:02.546Z,23.77
2022-09-02T19:15:33.748Z,23.76
2022-09-02T19:18:04.782Z,23.73
2022-09-02T19:20:35.298Z,23.71
2022-09-02T19:23:06.202Z,23.68
2022-09-02T19:28:20.769Z,23.61
2022-09-02T19:30:51.103Z,23.57
2022-09-02T19:33:18.864Z,23.56
2022-09-02T19:35:54.397Z,23.53
2022-09-02T19:38:22.134Z,23.50
2022-09-02T19:40:50.265Z,23.50
2022-09-02T19:43:18.841Z,23.48
2022-09-02T19:45:51.270Z,23.47
2022-09-02T19:48:21.278Z,23.44
2022-09-02T19:50:49.361Z,23.40
2022-09-02T19:53:25.653Z,23.40
2022-09-02T19:55:53.946Z,23.36
2022-09-02T19:58:22.260Z,23.34
2022-09-02T20:00:51.427Z,23.32
2022-09-02T20:03:22.863Z,23.32
2022-09-02T20:05:51.805Z,23.32
2022-09-02T20:08:20.063Z,23.27
2022-09-02T20:10:55.966Z,23.24
2022-09-02T20:13:24.879Z,23.22
2022-09-02T20:15:53.865Z,23.22
2022-09-02T20:18:26.580Z,23.21
2022-09-02T20:20:55.908Z,23.18
2022-09-02T20:23:24.086Z,23.18
2022-09-02T20:26:09.017Z,23.18
2022-09-02T20:28:47.452Z,23.16
2022-09-02T20:31:26.687Z,23.14
2022-09-02T20:34:03.693Z,23.12
2022-09-02T20:36:39.461Z,23.05
2022-09-02T20:39:21.696Z,23.02
2022-09-02T20:42:03.952Z,23.03
2022-09-02T20:44:48.819Z,23.02
2022-09-02T20:47:36.596Z,22.99
2022-09-02T20:50:19.657Z,22.96
2022-09-02T20:53:00.938Z,22.94
2022-09-02T20:55:37.064Z,22.94
2022-09-02T20:58:22.800Z,22.94
2022-09-02T21:01:06.554Z,22.93
2022-09-02T21:03:42.604Z,22.92
2022-09-02T21:06:12.140Z,22.88
2022-09-02T21:08:49.030Z,22.89
2022-09-02T21:11:18.310Z,22.83
2022-09-02T21:13:51.435Z,22.76
2022-09-02T21:16:24.529Z,22.75
2022-09-02T21:19:07.299Z,22.75
2022-09-02T21:21:44.817Z,22.70
2022-09-02T21:24:19.216Z,22.69
2022-09-02T21:26:55.655Z,22.70
2022-09-02T21:29:30.849Z,22.69
2022-09-02T21:32:03.948Z,22.69
2022-09-02T21:34:38.033Z,22.71
2022-09-02T21:37:09.849Z,22.64
2022-09-02T21:39:44.603Z,22.58
2022-09-02T21:42:23.320Z,22.58
2022-09-02T21:45:06.440Z,22.52
2022-09-02T21:47:39.580Z,22.50
2022-09-02T21:50:11.147Z,22.44
2022-09-02T21:52:50.886Z,22.45
2022-09-02T21:55:32.443Z,22.36
2022-09-02T21:58:12.645Z,22.34
2022-09-02T22:00:46.998Z,22.31
2022-09-02T22:03:18.042Z,22.31
2022-09-02T22:05:52.477Z,22.26
2022-09-02T22:08:33.645Z,22.25
2022-09-02T22:11:09.816Z,22.19
2022-09-02T22:13:41.804Z,22.18
2022-09-02T22:16:28.138Z,22.16
2022-09-02T22:19:02.214Z,22.16
2022-09-02T22:21:37.912Z,22.13
2022-09-02T22:24:08.222Z,22.05
2022-09-02T22:26:41.487Z,21.98
2022-09-02T22:29:18.041Z,21.92
2022-09-02T22:31:48.766Z,21.93
2022-09-02T22:34:23.542Z,21.89
2022-09-02T22:37:00.495Z,21.92
2022-09-02T22:39:38.608Z,21.84
2022-09-02T22:42:15.982Z,21.79
2022-09-02T22:45:05.472Z,21.75
2022-09-02T22:47:53.906Z,21.74
2022-09-02T22:50:46.390Z,21.65
2022-09-02T22:53:14.053Z,21.57
2022-09-02T22:55:54.534Z,21.57
2022-09-02T22:58:58.385Z,21.50
2022-09-02T23:01:34.432Z,21.45
2022-09-02T23:04:24.758Z,21.39
2022-09-02T23:06:55.048Z,21.43
2022-09-02T23:09:22.729Z,21.40
2022-09-02T23:12:00.864Z,21.38
2022-09-02T23:14:38.842Z,21.39
2022-09-02T23:17:23.757Z,21.38
2022-09-02T23:20:01.303Z,21.35
2022-09-02T23:22:41.902Z,21.32
2022-09-02T23:25:24.336Z,21.33
2022-09-02T23:28:03.856Z,21.35
2022-09-02T23:30:31.824Z,21.30
2022-09-02T23:33:14.115Z,21.25
2022-09-02T23:35:48.137Z,21.25
2022-09-02T23:38:27.974Z,21.25
2022-09-02T23:41:04.753Z,21.28
2022-09-02T23:43:34.767Z,21.32
2022-09-02T23:46:19.938Z,21.28
2022-09-02T23:48:54.173Z,21.31
2022-09-02T23:51:32.177Z,21.31
2022-09-02T23:54:17.970Z,21.33
2022-09-02T23:57:03.970Z,21.31
2022-09-02T23:59:50.588Z,21.29
